Time;durP1;ratioP1;P1;durP2;ratioP2;P2;SDS_P1;SDS_P2;PMS_P1;PMS_P2;Temp;Humidity;BMP_temperature;BMP_pressure;BME280_temperature;BME280_humidity;BME280_pressure;Samples;Min_cycle;Max_cycle;Signal;HPM_P1;HPM_P2
2022/07/29 00:00:00;;;;;;;2.58;2.38;;;25.60;62.60;;;;;;4994180;28;20398;-69
2022/07/29 00:02:27;;;;;;;2.67;2.37;;;25.60;62.40;;;;;;4994609;28;20402;-69
2022/07/29 00:04:52;;;;;;;2.47;2.25;;;25.60;62.50;;;;;;4994615;28;20382;-69
2022/07/29 00:07:18;;;;;;;2.47;2.27;;;25.60;62.40;;;;;;4994600;28;20420;-70
2022/07/29 00:09:44;;;;;;;2.40;2.20;;;25.60;62.30;;;;;;4994508;28;20429;-70
2022/07/29 00:12:09;;;;;;;2.80;2.50;;;25.60;62.50;;;;;;4993858;28;20891;-70
2022/07/29 00:14:35;;;;;;;2.50;2.20;;;25.60;62.60;;;;;;4994363;28;20399;-70
2022/07/29 00:17:01;;;;;;;3.00;2.45;;;25.60;62.50;;;;;;4994372;28;20772;-69
2022/07/29 00:19:26;;;;;;;2.80;2.50;;;25.60;62.50;;;;;;4994250;28;20402;-71
2022/07/29 00:21:52;;;;;;;2.50;2.30;;;25.50;62.40;;;;;;4993689;28;20517;-70
2022/07/29 00:24:18;;;;;;;3.13;2.25;;;25.50;62.40;;;;;;4993035;28;20402;-70
2022/07/29 00:26:43;;;;;;;2.80;2.13;;;25.50;62.30;;;;;;4993886;28;20886;-70
2022/07/29 00:29:09;;;;;;;2.53;2.20;;;25.50;62.30;;;;;;4993730;28;20393;-70
2022/07/29 00:31:34;;;;;;;2.50;2.10;;;25.60;62.30;;;;;;4994054;28;20394;-70
2022/07/29 00:34:00;;;;;;;2.42;2.20;;;25.50;62.30;;;;;;4993571;28;20928;-70
2022/07/29 00:36:26;;;;;;;2.40;2.20;;;25.50;62.30;;;;;;4993906;28;20488;-70
2022/07/29 00:38:51;;;;;;;2.50;2.30;;;25.50;62.60;;;;;;4993918;28;20417;-70
2022/07/29 00:41:18;;;;;;;2.20;2.00;;;25.50;62.50;;;;;;4992580;28;20449;-69
2022/07/29 00:43:44;;;;;;;2.70;2.13;;;25.50;62.60;;;;;;4993865;28;20382;-70
2022/07/29 00:46:11;;;;;;;2.55;2.30;;;25.50;62.50;;;;;;4993287;28;20410;-71
2022/07/29 00:48:37;;;;;;;2.27;2.07;;;25.50;62.60;;;;;;4993864;28;20383;-69
2022/07/29 00:51:04;;;;;;;3.23;2.03;;;25.50;62.50;;;;;;4992780;28;20468;-69
2022/07/29 00:53:30;;;;;;;3.13;2.10;;;25.50;62.70;;;;;;4993709;28;20382;-69
2022/07/29 00:55:57;;;;;;;2.50;2.30;;;25.50;62.80;;;;;;4991721;28;20398;-69
2022/07/29 00:58:23;;;;;;;2.35;2.10;;;25.50;62.80;;;;;;4993601;28;20470;-69
2022/07/29 01:00:49;;;;;;;2.53;2.20;;;25.50;62.60;;;;;;4993390;28;20430;-69
2022/07/29 01:03:15;;;;;;;2.50;2.30;;;25.50;62.60;;;;;;4993465;28;20390;-69
2022/07/29 01:05:42;;;;;;;3.50;2.27;;;25.40;62.40;;;;;;4993459;28;20399;-69
2022/07/29 01:08:10;;;;;;;2.33;2.13;;;25.40;62.50;;;;;;4992911;28;20477;-69
2022/07/29 01:10:38;;;;;;;2.40;2.10;;;25.50;62.70;;;;;;4993138;28;20762;-70
2022/07/29 01:13:04;;;;;;;2.87;2.27;;;25.40;62.60;;;;;;4993310;28;20405;-69
2022/07/29 01:15:30;;;;;;;2.70;2.10;;;25.40;62.60;;;;;;4991876;28;20402;-71
2022/07/29 01:17:59;;;;;;;2.42;2.20;;;25.50;62.60;;;;;;4991400;28;20395;-69
2022/07/29 01:20:49;;;;;;;2.70;2.33;;;25.40;62.50;;;;;;4991869;28;20526;-69
2022/07/29 01:23:52;;;;;;;2.60;2.40;;;25.40;62.60;;;;;;4992614;28;20903;-69
2022/07/29 01:26:31;;;;;;;4.00;2.00;;;25.40;62.60;;;;;;4967640;28;20409;-69
2022/07/29 01:29:05;;;;;;;2.30;2.10;;;25.40;62.60;;;;;;4992647;28;20439;-69
2022/07/29 01:31:56;;;;;;;2.20;2.00;;;25.40;62.50;;;;;;4991616;28;20390;-70
2022/07/29 01:34:26;;;;;;;2.47;2.10;;;25.40;62.60;;;;;;4984390;28;20493;-69
2022/07/29 01:37:10;;;;;;;2.22;2.00;;;25.40;62.60;;;;;;4992996;28;20405;-69
2022/07/29 01:39:38;;;;;;;2.10;1.90;;;25.40;62.60;;;;;;4991670;28;20378;-69
2022/07/29 01:42:25;;;;;;;2.88;1.90;;;25.40;62.50;;;;;;4990970;28;20418;-69
2022/07/29 01:45:00;;;;;;;2.55;2.20;;;25.40;62.50;;;;;;4990603;28;20918;-69
2022/07/29 01:47:39;;;;;;;2.50;2.30;;;25.40;62.70;;;;;;4991398;28;20474;-69
2022/07/29 01:50:10;;;;;;;2.45;2.25;;;25.40;62.70;;;;;;4990708;28;20402;-69
2022/07/29 01:53:03;;;;;;;2.30;2.10;;;25.30;62.60;;;;;;4991264;28;20458;-70
2022/07/29 01:55:31;;;;;;;2.58;2.20;;;25.30;62.60;;;;;;4988331;28;20430;-69
2022/07/29 01:57:59;;;;;;;2.17;1.98;;;25.30;62.50;;;;;;4990556;28;20402;-69
2022/07/29 02:00:26;;;;;;;2.40;2.20;;;25.30;62.50;;;;;;4992008;28;20429;-69
2022/07/29 02:02:54;;;;;;;2.40;2.20;;;25.30;62.50;;;;;;4992438;28;20489;-69
2022/07/29 02:05:22;;;;;;;3.10;2.05;;;25.30;62.50;;;;;;4991543;28;20390;-70
2022/07/29 02:07:50;;;;;;;2.45;2.25;;;25.30;62.40;;;;;;4988284;28;20812;-69
2022/07/29 02:10:21;;;;;;;2.90;2.13;;;25.30;62.50;;;;;;4991373;28;20394;-70
2022/07/29 02:12:49;;;;;;;2.60;2.05;;;25.30;62.70;;;;;;4989510;28;20386;-69
2022/07/29 02:15:16;;;;;;;2.42;2.00;;;25.30;62.70;;;;;;4992137;28;20399;-70
2022/07/29 02:17:48;;;;;;;2.55;2.28;;;25.30;62.70;;;;;;4990714;28;20402;-69
2022/07/29 02:20:16;;;;;;;2.40;2.20;;;25.30;62.90;;;;;;4988532;28;20827;-69
2022/07/29 02:22:44;;;;;;;2.38;2.17;;;25.30;62.90;;;;;;4990791;28;20415;-69
2022/07/29 02:25:12;;;;;;;4.32;2.20;;;25.30;62.90;;;;;;4988419;28;20407;-70
2022/07/29 02:27:40;;;;;;;7.32;2.40;;;25.30;62.80;;;;;;4991797;28;20442;-71
2022/07/29 02:30:07;;;;;;;9.32;2.45;;;25.30;62.80;;;;;;4991363;28;20382;-69
2022/07/29 02:32:37;;;;;;;3.78;2.10;;;25.30;62.70;;;;;;4990566;28;20473;-69
2022/07/29 02:35:04;;;;;;;5.78;2.17;;;25.30;62.80;;;;;;4991653;28;20391;-69
2022/07/29 02:37:30;;;;;;;3.80;2.10;;;25.30;62.80;;;;;;4991801;28;20430;-69
2022/07/29 02:39:58;;;;;;;4.22;2.00;;;25.30;62.70;;;;;;4991638;28;20406;-70
2022/07/29 02:42:26;;;;;;;3.95;2.15;;;25.20;62.50;;;;;;4991457;28;20789;-70
2022/07/29 02:44:52;;;;;;;3.40;2.10;;;25.30;62.50;;;;;;4991717;28;20421;-70
2022/07/29 02:47:26;;;;;;;3.70;2.30;;;25.20;62.40;;;;;;4991390;28;20493;-69
2022/07/29 02:50:03;;;;;;;2.80;2.10;;;25.20;62.40;;;;;;4985821;28;20931;-70
2022/07/29 02:52:58;;;;;;;2.83;2.08;;;25.20;62.30;;;;;;4992031;28;20881;-69
2022/07/29 02:55:36;;;;;;;3.30;2.30;;;25.20;62.40;;;;;;4991033;28;20468;-70
2022/07/29 02:58:30;;;;;;;2.80;2.20;;;25.20;62.40;;;;;;4990294;28;20425;-69
2022/07/29 03:00:59;;;;;;;2.90;2.05;;;25.20;62.50;;;;;;4991972;28;20422;-69
2022/07/29 03:03:30;;;;;;;3.63;2.30;;;25.20;62.30;;;;;;4991902;28;20398;-69
2022/07/29 03:05:57;;;;;;;2.72;2.30;;;25.20;62.30;;;;;;4991829;28;20390;-69
2022/07/29 03:08:24;;;;;;;2.83;2.30;;;25.20;62.20;;;;;;4991670;28;20422;-70
2022/07/29 03:10:51;;;;;;;2.55;2.30;;;25.20;62.60;;;;;;4991792;28;20394;-70
2022/07/29 03:13:18;;;;;;;3.60;2.13;;;25.20;62.70;;;;;;4990411;28;20936;-70
2022/07/29 03:15:45;;;;;;;3.30;2.13;;;25.20;62.80;;;;;;4990369;28;20963;-69
2022/07/29 03:18:12;;;;;;;3.70;2.60;;;25.30;63.30;;;;;;4991125;28;20406;-70
2022/07/29 03:20:38;;;;;;;4.90;2.40;;;25.30;64.90;;;;;;4991530;28;20524;-71
2022/07/29 03:23:04;;;;;;;3.53;2.25;;;25.30;64.50;;;;;;4991730;28;20905;-70
2022/07/29 03:25:30;;;;;;;3.87;2.40;;;25.40;64.80;;;;;;4991663;28;20426;-70
2022/07/29 03:27:56;;;;;;;5.40;2.30;;;25.40;64.70;;;;;;4991593;28;20513;-70
2022/07/29 03:30:23;;;;;;;3.42;2.33;;;25.50;65.10;;;;;;4991098;28;20442;-70
2022/07/29 03:32:50;;;;;;;3.55;2.20;;;25.50;65.50;;;;;;4991381;28;20390;-71
2022/07/29 03:35:22;;;;;;;4.10;2.20;;;25.50;64.70;;;;;;4991433;28;20398;-70
2022/07/29 03:37:48;;;;;;;4.25;2.47;;;25.50;64.80;;;;;;4990330;28;20475;-70
2022/07/29 03:40:19;;;;;;;3.53;2.50;;;25.50;64.90;;;;;;4990946;28;20452;-70
2022/07/29 03:42:46;;;;;;;3.90;2.20;;;25.50;65.40;;;;;;4991284;28;20407;-70
2022/07/29 03:45:17;;;;;;;4.18;2.42;;;25.50;65.20;;;;;;4989907;28;20501;-70
2022/07/29 03:47:48;;;;;;;3.58;2.60;;;25.50;64.80;;;;;;4990288;28;20414;-70
2022/07/29 03:50:15;;;;;;;3.23;2.40;;;25.50;64.70;;;;;;4989730;28;20858;-70
2022/07/29 03:52:42;;;;;;;2.45;2.20;;;25.50;64.80;;;;;;4990251;28;20422;-69
2022/07/29 03:55:08;;;;;;;2.70;2.10;;;25.50;64.50;;;;;;4990167;28;20486;-70
2022/07/29 03:57:36;;;;;;;3.17;2.30;;;25.50;63.50;;;;;;4990108;28;20818;-70
2022/07/29 04:00:04;;;;;;;3.22;2.30;;;25.50;63.60;;;;;;4991217;28;20483;-70
2022/07/29 04:02:31;;;;;;;2.90;2.20;;;25.50;63.50;;;;;;4990142;28;20446;-70
2022/07/29 04:04:57;;;;;;;4.38;2.40;;;25.40;63.20;;;;;;4994944;28;20669;-69
2022/07/29 04:07:23;;;;;;;4.00;2.38;;;25.40;63.00;;;;;;4994814;28;20823;-70
2022/07/29 04:09:48;;;;;;;3.78;2.30;;;25.40;63.30;;;;;;4994293;28;20395;-70
2022/07/29 04:12:14;;;;;;;2.93;2.20;;;25.40;63.30;;;;;;4992819;28;20930;-70
2022/07/29 04:14:40;;;;;;;2.75;2.40;;;25.40;63.50;;;;;;4994401;28;20410;-71
2022/07/29 04:17:05;;;;;;;2.70;2.20;;;25.40;63.10;;;;;;4994534;28;20486;-70
2022/07/29 04:19:32;;;;;;;2.43;2.10;;;25.40;63.20;;;;;;4994120;28;20904;-70
2022/07/29 04:21:59;;;;;;;3.20;2.40;;;25.40;63.30;;;;;;4994351;28;20433;-70
2022/07/29 04:24:25;;;;;;;2.35;2.15;;;25.40;63.20;;;;;;4994266;28;20832;-70
2022/07/29 04:26:50;;;;;;;3.85;2.30;;;25.40;62.90;;;;;;4994297;28;20410;-71
2022/07/29 04:29:16;;;;;;;2.97;2.30;;;25.40;62.80;;;;;;4994303;28;20387;-70
2022/07/29 04:31:42;;;;;;;5.47;2.55;;;25.40;62.80;;;;;;4994353;28;20399;-71
2022/07/29 04:34:08;;;;;;;5.33;2.67;;;25.30;62.40;;;;;;4993952;28;20480;-70
2022/07/29 04:36:34;;;;;;;5.80;2.80;;;25.30;62.20;;;;;;4994286;28;20398;-72
2022/07/29 04:39:01;;;;;;;5.45;2.80;;;25.30;62.00;;;;;;4994346;28;20436;-71
2022/07/29 04:41:27;;;;;;;3.35;2.47;;;25.30;62.10;;;;;;4993899;28;20426;-69
2022/07/29 04:43:53;;;;;;;6.00;2.88;;;25.30;61.20;;;;;;4994234;28;20389;-71
2022/07/29 04:46:19;;;;;;;4.05;2.63;;;25.30;61.70;;;;;;4992250;28;20407;-69
2022/07/29 04:48:48;;;;;;;5.13;2.70;;;25.30;61.80;;;;;;4994009;28;20402;-69
2022/07/29 04:51:14;;;;;;;4.35;2.60;;;25.30;61.70;;;;;;4994042;28;20453;-69
2022/07/29 04:53:40;;;;;;;3.63;2.60;;;25.30;61.70;;;;;;4993603;28;20391;-70
2022/07/29 04:56:05;;;;;;;5.68;2.70;;;25.30;61.60;;;;;;4993641;28;20401;-69
2022/07/29 04:58:33;;;;;;;3.90;2.57;;;25.30;61.50;;;;;;4993858;28;20386;-69
2022/07/29 05:00:59;;;;;;;3.78;2.80;;;25.30;61.50;;;;;;4993749;28;20433;-69
2022/07/29 05:03:25;;;;;;;4.25;2.75;;;25.20;61.30;;;;;;4993845;28;20478;-70
2022/07/29 05:05:50;;;;;;;4.33;2.70;;;25.20;61.40;;;;;;4992419;28;20398;-70
2022/07/29 05:08:16;;;;;;;4.07;2.60;;;25.20;61.50;;;;;;4993208;28;20387;-71
2022/07/29 05:10:42;;;;;;;4.30;2.93;;;25.20;61.20;;;;;;4992222;28;20406;-70
2022/07/29 05:13:08;;;;;;;3.33;2.70;;;25.20;60.20;;;;;;4993597;28;20405;-70
2022/07/29 05:15:34;;;;;;;5.03;2.77;;;25.20;60.70;;;;;;4989127;28;20403;-70
2022/07/29 05:18:00;;;;;;;4.32;3.00;;;25.20;61.20;;;;;;4991277;28;20911;-69
2022/07/29 05:20:28;;;;;;;5.17;3.00;;;25.20;62.20;;;;;;4992928;28;20785;-70
2022/07/29 05:22:58;;;;;;;3.42;3.10;;;25.20;63.10;;;;;;4993471;28;20402;-70
2022/07/29 05:25:25;;;;;;;4.97;3.10;;;25.20;62.20;;;;;;4993445;28;20414;-69
2022/07/29 05:27:50;;;;;;;4.65;2.85;;;25.20;61.90;;;;;;4993107;28;20469;-69
2022/07/29 05:30:16;;;;;;;12.47;3.30;;;25.20;62.00;;;;;;4992955;28;20853;-69
2022/07/29 05:32:42;;;;;;;3.17;2.88;;;25.20;61.90;;;;;;4993247;28;20394;-69
2022/07/29 05:35:08;;;;;;;4.65;3.22;;;25.10;61.60;;;;;;4993183;28;20392;-71
2022/07/29 05:37:34;;;;;;;4.28;3.00;;;25.10;61.30;;;;;;4993176;28;20481;-69
2022/07/29 05:39:59;;;;;;;4.13;2.80;;;25.10;61.60;;;;;;4993058;28;20473;-70
2022/07/29 05:42:25;;;;;;;3.72;2.80;;;25.10;61.60;;;;;;4992518;28;20412;-69
2022/07/29 05:44:51;;;;;;;4.80;3.10;;;25.10;61.50;;;;;;4993000;28;20383;-70
2022/07/29 05:47:17;;;;;;;3.65;2.85;;;25.10;62.00;;;;;;4992609;28;20430;-70
2022/07/29 05:49:42;;;;;;;3.63;2.73;;;25.10;61.60;;;;;;4992440;28;20389;-69
2022/07/29 05:52:08;;;;;;;3.30;3.00;;;25.10;61.40;;;;;;4992652;28;20769;-69
2022/07/29 05:54:35;;;;;;;3.37;2.90;;;25.10;61.50;;;;;;4992365;28;20426;-69
2022/07/29 05:57:01;;;;;;;3.55;2.80;;;25.10;61.60;;;;;;4993003;28;20588;-69
2022/07/29 05:59:26;;;;;;;3.72;2.60;;;25.10;61.50;;;;;;4992840;28;20473;-69
2022/07/29 06:01:52;;;;;;;3.97;2.90;;;25.10;61.40;;;;;;4992738;28;20505;-69
2022/07/29 06:04:18;;;;;;;3.70;3.00;;;25.10;61.30;;;;;;4992349;28;20398;-69
2022/07/29 06:06:44;;;;;;;4.28;2.90;;;25.10;61.40;;;;;;4992763;28;20386;-69
2022/07/29 06:09:10;;;;;;;4.17;2.60;;;25.00;61.10;;;;;;4992596;28;20395;-69
2022/07/29 06:11:35;;;;;;;3.70;2.97;;;25.00;61.10;;;;;;4992470;28;20448;-69
2022/07/29 06:14:02;;;;;;;4.97;2.63;;;25.00;61.20;;;;;;4992612;28;20433;-70
2022/07/29 06:16:28;;;;;;;3.95;2.75;;;25.00;60.80;;;;;;4992030;28;20391;-70
2022/07/29 06:18:54;;;;;;;4.07;2.77;;;25.00;61.10;;;;;;4992442;28;20399;-69
2022/07/29 06:21:19;;;;;;;4.03;2.67;;;25.00;61.20;;;;;;4992300;28;20422;-69
2022/07/29 06:23:45;;;;;;;3.55;2.80;;;25.10;61.30;;;;;;4991087;28;20749;-70
2022/07/29 06:26:11;;;;;;;3.10;2.80;;;25.10;61.40;;;;;;4990453;28;20492;-69
2022/07/29 06:28:36;;;;;;;3.42;2.70;;;25.10;61.30;;;;;;4991045;28;20897;-69
2022/07/29 06:31:02;;;;;;;3.80;2.70;;;25.10;61.40;;;;;;4992260;28;20872;-69
2022/07/29 06:33:28;;;;;;;3.38;2.78;;;25.10;61.50;;;;;;4991041;28;20481;-70
2022/07/29 06:35:54;;;;;;;3.67;2.70;;;25.10;61.30;;;;;;4992273;28;20402;-69
2022/07/29 06:38:20;;;;;;;3.10;2.75;;;25.10;61.00;;;;;;4991820;28;20390;-69
2022/07/29 06:43:37;;;;;;;3.20;2.90;;;25.10;61.40;;;;;;4992071;28;20530;-69
2022/07/29 06:46:09;;;;;;;3.38;2.53;;;25.10;61.30;;;;;;4990790;28;20403;-69
2022/07/29 06:48:38;;;;;;;2.97;2.65;;;25.10;61.30;;;;;;4991764;28;20394;-69
2022/07/29 06:51:05;;;;;;;3.10;2.80;;;25.10;61.30;;;;;;4990853;28;20772;-69
2022/07/29 06:53:32;;;;;;;3.08;2.78;;;25.10;61.30;;;;;;4990806;28;20761;-68
2022/07/29 06:55:59;;;;;;;3.42;2.40;;;25.10;61.50;;;;;;4981994;28;20442;-68
2022/07/29 06:58:26;;;;;;;2.90;2.50;;;25.10;61.40;;;;;;4990712;28;20455;-68
2022/07/29 07:00:51;;;;;;;3.58;2.60;;;25.10;61.30;;;;;;4992467;28;20430;-69
2022/07/29 07:03:18;;;;;;;3.13;2.70;;;25.10;61.30;;;;;;4991681;28;20394;-69
2022/07/29 07:05:44;;;;;;;4.43;2.85;;;25.10;61.30;;;;;;4989418;28;20410;-69
2022/07/29 07:08:11;;;;;;;3.23;2.90;;;25.10;61.30;;;;;;4990305;28;20516;-68
2022/07/29 07:10:37;;;;;;;2.83;2.47;;;25.10;61.30;;;;;;4990215;28;20430;-68
2022/07/29 07:13:04;;;;;;;2.40;2.20;;;25.10;61.30;;;;;;4990498;28;20407;-69
2022/07/29 07:15:30;;;;;;;3.17;2.22;;;25.10;61.20;;;;;;4991452;28;20489;-69
2022/07/29 07:17:57;;;;;;;2.90;2.60;;;25.10;61.30;;;;;;4991578;28;20486;-69
2022/07/29 07:20:23;;;;;;;2.53;2.33;;;25.10;61.30;;;;;;4991070;28;20466;-69
2022/07/29 07:22:49;;;;;;;3.30;2.80;;;25.10;61.20;;;;;;4990884;28;20421;-69
2022/07/29 07:25:15;;;;;;;3.33;2.50;;;25.10;61.30;;;;;;4991353;28;20470;-69
2022/07/29 07:27:40;;;;;;;7.82;3.28;;;25.10;61.30;;;;;;4987499;28;20422;-69
2022/07/29 07:30:07;;;;;;;3.50;2.70;;;25.10;61.30;;;;;;4985499;28;20390;-68
2022/07/29 07:32:33;;;;;;;3.47;2.58;;;25.10;61.40;;;;;;4990958;28;20386;-69
2022/07/29 07:34:59;;;;;;;3.33;2.77;;;25.10;61.40;;;;;;4991483;28;20423;-69
2022/07/29 07:37:25;;;;;;;3.53;2.38;;;25.10;61.40;;;;;;4991434;28;20398;-69
2022/07/29 07:39:52;;;;;;;3.20;2.58;;;25.10;62.00;;;;;;4995015;28;20394;-69
2022/07/29 07:42:19;;;;;;;3.35;2.50;;;25.10;61.40;;;;;;4994132;28;20418;-69
2022/07/29 07:44:48;;;;;;;3.10;2.50;;;25.10;62.00;;;;;;4989529;28;20752;-68
2022/07/29 07:47:15;;;;;;;3.37;2.50;;;25.10;61.40;;;;;;4994193;28;20433;-68
2022/07/29 07:49:41;;;;;;;2.70;2.40;;;25.10;61.50;;;;;;4994729;28;20440;-69
2022/07/29 07:52:06;;;;;;;2.72;2.30;;;25.10;61.50;;;;;;4994706;28;20473;-68
2022/07/29 07:54:32;;;;;;;2.72;2.40;;;25.10;61.50;;;;;;4992969;28;20410;-68
2022/07/29 07:56:57;;;;;;;2.60;2.27;;;25.20;61.60;;;;;;4994637;28;20398;-69
2022/07/29 07:59:23;;;;;;;3.67;2.40;;;25.10;61.60;;;;;;4993406;28;20426;-69
2022/07/29 08:01:49;;;;;;;4.63;2.63;;;25.10;61.60;;;;;;4988156;28;20843;-69
2022/07/29 08:04:15;;;;;;;2.92;2.10;;;25.10;61.60;;;;;;4993598;28;20490;-69
2022/07/29 08:06:41;;;;;;;2.88;2.30;;;25.20;61.70;;;;;;4995258;28;20398;-71
2022/07/29 08:09:07;;;;;;;2.90;2.60;;;25.20;61.70;;;;;;4996602;28;20449;-69
2022/07/29 08:11:32;;;;;;;3.35;2.47;;;25.20;61.70;;;;;;4994433;28;20413;-69
2022/07/29 08:13:58;;;;;;;3.03;2.70;;;25.20;61.70;;;;;;4995867;28;20391;-69
2022/07/29 08:16:25;;;;;;;4.67;2.60;;;25.20;61.70;;;;;;4976228;28;20458;-69
2022/07/29 08:18:51;;;;;;;5.50;2.58;;;25.20;62.30;;;;;;4979833;28;20437;-70
2022/07/29 08:21:17;;;;;;;3.72;2.60;;;25.20;61.70;;;;;;4986621;28;20427;-69
2022/07/29 08:23:48;;;;;;;3.42;2.60;;;25.20;61.70;;;;;;4975318;28;20416;-69
2022/07/29 08:26:15;;;;;;;5.95;2.80;;;25.10;61.60;;;;;;4975025;28;20395;-69
2022/07/29 08:28:45;;;;;;;4.28;2.65;;;25.10;61.70;;;;;;4974094;28;20404;-69
2022/07/29 08:31:12;;;;;;;4.88;2.80;;;25.20;61.90;;;;;;4974247;28;20871;-69
2022/07/29 08:33:38;;;;;;;4.50;2.90;;;25.20;61.90;;;;;;4974608;28;20402;-68
2022/07/29 08:36:05;;;;;;;3.63;2.60;;;25.30;61.70;;;;;;4974720;28;20491;-68
2022/07/29 08:38:31;;;;;;;5.70;2.80;;;25.30;61.60;;;;;;4974331;28;20402;-68
2022/07/29 08:40:58;;;;;;;5.23;2.87;;;25.40;61.40;;;;;;4974703;28;20886;-69
2022/07/29 08:43:24;;;;;;;3.47;2.70;;;25.40;61.30;;;;;;4974712;28;20428;-68
2022/07/29 08:45:51;;;;;;;3.63;2.60;;;25.40;61.20;;;;;;4974811;28;20427;-68
2022/07/29 08:48:19;;;;;;;4.07;2.97;;;25.50;61.10;;;;;;4974331;28;20939;-68
2022/07/29 08:50:47;;;;;;;3.30;2.57;;;25.50;61.10;;;;;;4973336;28;20847;-68
2022/07/29 08:53:17;;;;;;;3.33;2.65;;;25.50;61.00;;;;;;4974683;28;20396;-68
2022/07/29 08:55:45;;;;;;;3.38;2.60;;;25.50;60.90;;;;;;4974615;28;20407;-68
2022/07/29 08:58:12;;;;;;;3.08;2.60;;;25.50;60.80;;;;;;4974575;28;20384;-68
2022/07/29 09:00:43;;;;;;;3.13;2.40;;;25.50;60.70;;;;;;4974883;28;20422;-71
2022/07/29 09:03:11;;;;;;;3.65;2.60;;;25.60;60.80;;;;;;4992432;28;20402;-69
2022/07/29 09:05:41;;;;;;;2.80;2.40;;;25.60;60.70;;;;;;4993748;28;20979;-69
2022/07/29 09:08:07;;;;;;;3.20;2.50;;;25.60;60.70;;;;;;4993628;28;20518;-69
2022/07/29 09:10:35;;;;;;;3.40;2.13;;;25.60;60.60;;;;;;4991908;28;20405;-69
2022/07/29 09:13:01;;;;;;;2.92;2.30;;;25.60;60.60;;;;;;4992330;28;20907;-68
2022/07/29 09:15:27;;;;;;;3.10;2.22;;;25.60;60.60;;;;;;4992494;28;20431;-69
2022/07/29 09:17:52;;;;;;;3.00;2.40;;;25.60;60.60;;;;;;4992440;28;20433;-68
2022/07/29 09:20:24;;;;;;;2.60;2.40;;;25.60;60.50;;;;;;4992175;28;20417;-68
2022/07/29 09:22:52;;;;;;;2.90;2.28;;;25.70;60.60;;;;;;4993659;28;20406;-68
2022/07/29 09:25:40;;;;;;;3.35;2.60;;;25.70;60.60;;;;;;4993662;28;20406;-68
2022/07/29 09:28:11;;;;;;;2.65;2.40;;;25.70;60.50;;;;;;4993351;28;20414;-69
2022/07/29 09:30:51;;;;;;;2.55;2.35;;;25.70;60.50;;;;;;4992995;28;20394;-68
2022/07/29 09:33:17;;;;;;;3.22;2.50;;;25.70;60.50;;;;;;4993385;28;20383;-68
2022/07/29 09:35:43;;;;;;;2.72;2.42;;;25.70;60.50;;;;;;4992076;28;20418;-68
2022/07/29 09:38:13;;;;;;;3.25;2.85;;;25.70;60.40;;;;;;4992072;28;20403;-68
2022/07/29 09:40:39;;;;;;;2.78;2.50;;;25.70;60.40;;;;;;4991387;28;20410;-68
2022/07/29 09:43:12;;;;;;;2.80;2.47;;;25.80;60.40;;;;;;4993159;28;20402;-69
2022/07/29 09:45:38;;;;;;;2.58;2.38;;;25.80;60.30;;;;;;4991859;28;20968;-69
2022/07/29 09:48:33;;;;;;;3.33;2.42;;;25.80;60.40;;;;;;4992908;28;20449;-68
2022/07/29 09:51:01;;;;;;;3.50;2.63;;;25.80;60.30;;;;;;4983253;28;20753;-68
2022/07/29 09:53:37;;;;;;;2.50;2.30;;;25.80;60.30;;;;;;4992960;28;20860;-69
2022/07/29 09:56:04;;;;;;;2.80;2.45;;;25.80;60.20;;;;;;4993063;28;20393;-68
2022/07/29 09:58:30;;;;;;;2.60;2.40;;;25.80;60.30;;;;;;4991102;28;20968;-68
2022/07/29 10:00:56;;;;;;;2.65;2.22;;;25.80;60.30;;;;;;4988810;28;20529;-69
2022/07/29 10:03:23;;;;;;;2.85;2.45;;;25.80;60.20;;;;;;4985505;28;20461;-69
2022/07/29 10:06:08;;;;;;;4.18;2.35;;;25.80;60.50;;;;;;4992403;28;20397;-69
2022/07/29 10:08:34;;;;;;;6.00;2.50;;;25.80;60.80;;;;;;4992052;28;20509;-69
2022/07/29 10:11:32;;;;;;;4.32;2.67;;;25.80;60.70;;;;;;4991165;28;20484;-69
2022/07/29 10:13:58;;;;;;;4.20;2.70;;;25.80;61.20;;;;;;4970472;28;20430;-69
2022/07/29 10:16:25;;;;;;;4.60;3.00;;;25.90;61.60;;;;;;4992097;28;20480;-69
2022/07/29 10:18:51;;;;;;;5.28;2.55;;;25.90;62.50;;;;;;4992513;28;20477;-68
2022/07/29 10:21:17;;;;;;;6.47;2.72;;;25.90;61.70;;;;;;4992255;28;20904;-69
2022/07/29 10:23:44;;;;;;;7.05;2.60;;;26.00;61.70;;;;;;4990902;28;20397;-69
2022/07/29 10:26:10;;;;;;;5.78;2.90;;;26.00;61.40;;;;;;4991420;28;20421;-69
2022/07/29 10:28:36;;;;;;;7.40;3.03;;;26.00;67.20;;;;;;4991769;28;20494;-69
2022/07/29 10:31:09;;;;;;;6.93;2.95;;;26.10;65.90;;;;;;4992431;28;20414;-68
2022/07/29 10:34:07;;;;;;;6.10;3.10;;;26.10;67.10;;;;;;4992419;28;20485;-69
2022/07/29 10:36:54;;;;;;;5.07;3.33;;;26.20;66.80;;;;;;4991788;28;20405;-69
2022/07/29 10:39:41;;;;;;;4.55;3.10;;;26.20;66.20;;;;;;4990218;28;20931;-69
2022/07/29 10:42:21;;;;;;;5.30;3.90;;;26.20;65.70;;;;;;4990759;28;20903;-69
2022/07/29 10:44:47;;;;;;;5.05;3.67;;;26.20;65.00;;;;;;4991666;28;20391;-69
2022/07/29 10:47:23;;;;;;;8.07;5.40;;;26.30;65.70;;;;;;4990069;28;20955;-69
2022/07/29 10:50:02;;;;;;;8.87;6.37;;;26.30;64.00;;;;;;4990333;28;20402;-69
2022/07/29 10:52:56;;;;;;;10.02;7.40;;;26.30;63.70;;;;;;4990136;28;20395;-69
2022/07/29 10:55:50;;;;;;;9.60;8.13;;;26.30;63.30;;;;;;4983353;28;20769;-69
2022/07/29 10:58:15;;;;;;;9.65;7.95;;;26.30;63.40;;;;;;4989344;28;20452;-69
2022/07/29 11:00:41;;;;;;;12.03;9.43;;;26.40;64.30;;;;;;4989919;28;20821;-69
2022/07/29 11:03:07;;;;;;;19.02;13.70;;;26.30;63.30;;;;;;4989827;28;20405;-69
2022/07/29 11:05:55;;;;;;;40.20;33.00;;;26.40;63.70;;;;;;4988301;28;20882;-69
2022/07/29 11:08:24;;;;;;;57.80;41.75;;;26.40;63.60;;;;;;4984776;28;20409;-69
2022/07/29 11:10:53;;;;;;;90.95;64.50;;;26.40;63.70;;;;;;4991666;28;20408;-69
2022/07/29 11:13:43;;;;;;;66.80;48.17;;;26.50;64.40;;;;;;4992147;28;20913;-69
2022/07/29 11:16:22;;;;;;;49.58;38.72;;;26.50;65.90;;;;;;4982910;28;20414;-70
2022/07/29 11:19:10;;;;;;;41.03;30.33;;;26.50;64.20;;;;;;4988500;28;20421;-69
2022/07/29 11:21:49;;;;;;;35.25;25.45;;;26.50;64.00;;;;;;4988142;28;20438;-70
2022/07/29 11:24:20;;;;;;;31.17;22.88;;;26.50;63.60;;;;;;4992820;28;20410;-69
2022/07/29 11:27:13;;;;;;;28.42;20.70;;;26.50;62.60;;;;;;4984405;28;20416;-72
2022/07/29 11:29:47;;;;;;;23.83;18.02;;;26.50;62.40;;;;;;4986188;28;20458;-70
2022/07/29 11:32:15;;;;;;;22.42;16.45;;;26.50;62.30;;;;;;4987552;28;20398;-69
2022/07/29 11:34:42;;;;;;;22.42;16.85;;;26.50;62.00;;;;;;4991759;28;20400;-69
2022/07/29 11:37:11;;;;;;;21.08;16.02;;;26.50;61.80;;;;;;4995503;28;20485;-70
2022/07/29 11:39:46;;;;;;;21.35;15.57;;;26.40;61.70;;;;;;4991321;28;21117;-69
2022/07/29 11:42:23;;;;;;;19.38;14.50;;;26.40;61.50;;;;;;4995245;28;20437;-69
2022/07/29 11:45:01;;;;;;;18.27;13.88;;;26.40;61.50;;;;;;4995092;28;20398;-69
2022/07/29 11:47:28;;;;;;;19.25;13.85;;;26.40;61.20;;;;;;4993964;28;20390;-69
2022/07/29 11:49:56;;;;;;;17.35;12.90;;;26.40;61.40;;;;;;4994693;28;21027;-70
2022/07/29 11:52:23;;;;;;;17.23;12.18;;;26.40;61.40;;;;;;4995007;28;20441;-69
2022/07/29 11:54:50;;;;;;;13.75;11.45;;;26.40;61.10;;;;;;4994845;28;20765;-69
2022/07/29 11:57:18;;;;;;;12.95;10.40;;;26.40;60.90;;;;;;4994802;28;20397;-69
2022/07/29 11:59:46;;;;;;;17.00;11.10;;;26.40;61.90;;;;;;4994864;28;20477;-69
2022/07/29 12:02:13;;;;;;;15.63;10.00;;;26.40;61.80;;;;;;4994545;28;20469;-70
2022/07/29 12:04:59;;;;;;;13.20;9.75;;;26.40;61.20;;;;;;4994502;28;20893;-69
2022/07/29 12:07:28;;;;;;;14.68;8.63;;;26.40;61.40;;;;;;4995277;28;20407;-69
2022/07/29 12:09:53;;;;;;;10.63;8.38;;;26.40;61.60;;;;;;4993562;28;20794;-69
2022/07/29 12:12:20;;;;;;;11.32;7.60;;;26.40;61.70;;;;;;4993620;28;20425;-70
2022/07/29 12:14:46;;;;;;;10.63;8.00;;;26.40;61.70;;;;;;4993087;28;20556;-70
2022/07/29 12:17:32;;;;;;;10.82;7.57;;;26.40;61.80;;;;;;4993198;28;20442;-69
2022/07/29 12:20:00;;;;;;;10.00;7.25;;;26.40;61.70;;;;;;4991905;28;20417;-69
2022/07/29 12:22:31;;;;;;;9.43;7.05;;;26.40;61.60;;;;;;4992949;28;20419;-68
2022/07/29 12:25:01;;;;;;;8.73;7.07;;;26.40;61.50;;;;;;4992415;28;20405;-69
2022/07/29 12:27:27;;;;;;;8.15;6.60;;;26.40;61.30;;;;;;4994319;28;20441;-69
2022/07/29 12:30:02;;;;;;;8.40;6.88;;;26.40;61.70;;;;;;4992713;28;20893;-69
2022/07/29 12:32:38;;;;;;;8.93;6.50;;;26.50;61.30;;;;;;4990366;28;20413;-69
2022/07/29 12:35:10;;;;;;;9.77;6.50;;;26.40;60.90;;;;;;4993007;28;20438;-69
2022/07/29 12:37:38;;;;;;;7.78;6.18;;;26.40;61.00;;;;;;4991796;28;20399;-69
2022/07/29 12:40:07;;;;;;;10.57;5.90;;;26.40;60.80;;;;;;4992469;28;20501;-71
2022/07/29 12:42:33;;;;;;;8.25;5.57;;;26.40;60.70;;;;;;4991763;28;20426;-70
2022/07/29 12:44:58;;;;;;;9.57;5.97;;;26.50;60.90;;;;;;4993392;28;20894;-70
2022/07/29 12:47:24;;;;;;;18.60;12.98;;;26.50;60.80;;;;;;4992613;28;20453;-68
2022/07/29 12:49:50;;;;;;;24.60;19.17;;;26.40;60.20;;;;;;4993783;28;20907;-69
2022/07/29 12:52:36;;;;;;;22.80;19.63;;;26.40;60.10;;;;;;4992472;28;20403;-69
2022/07/29 12:55:02;;;;;;;21.90;19.58;;;26.50;59.70;;;;;;4992671;28;20382;-70
2022/07/29 12:57:28;;;;;;;18.27;16.38;;;26.50;59.40;;;;;;4993059;28;20442;-70